createdAt,value
2018-04-10T00:00:48.622Z,51.00
2018-04-10T00:03:16.154Z,51.24
2018-04-10T00:05:43.677Z,51.35
2018-04-10T00:08:11.273Z,51.22
2018-04-10T00:10:38.785Z,51.40
2018-04-10T00:13:06.299Z,51.47
2018-04-10T00:15:34.025Z,51.40
2018-04-10T00:18:01.573Z,51.51
2018-04-10T00:20:29.127Z,51.54
2018-04-10T00:22:56.668Z,51.82
2018-04-10T00:25:24.213Z,51.70
2018-04-10T00:27:51.815Z,51.65
2018-04-10T00:30:19.367Z,51.74
2018-04-10T00:32:46.913Z,51.44
2018-04-10T00:35:14.481Z,51.58
2018-04-10T00:37:42.257Z,51.75
2018-04-10T00:40:09.766Z,51.65
2018-04-10T00:42:37.366Z,51.69
2018-04-10T00:45:05.238Z,51.67
2018-04-10T00:47:32.934Z,51.91
2018-04-10T00:50:00.453Z,51.77
2018-04-10T00:52:28.336Z,51.84
2018-04-10T00:54:55.850Z,52.16
2018-04-10T00:57:23.442Z,52.12
2018-04-10T00:59:50.975Z,52.38
2018-04-10T01:02:18.504Z,52.27
2018-04-10T01:04:46.030Z,52.44
2018-04-10T01:07:13.584Z,52.36
2018-04-10T01:09:41.133Z,52.50
2018-04-10T01:12:08.633Z,52.48
2018-04-10T01:14:36.267Z,52.65
2018-04-10T01:17:03.791Z,52.77
2018-04-10T01:19:31.589Z,52.67
2018-04-10T01:21:59.123Z,52.49
2018-04-10T01:24:26.638Z,52.62
2018-04-10T01:26:54.148Z,52.65
2018-04-10T01:29:21.942Z,52.77
2018-04-10T01:31:49.610Z,52.41
2018-04-10T01:34:17.167Z,52.21
2018-04-10T01:36:44.705Z,52.15
2018-04-10T01:39:12.261Z,52.42
2018-04-10T01:41:39.797Z,52.20
2018-04-10T01:44:07.357Z,52.24
2018-04-10T01:46:34.887Z,52.16
2018-04-10T01:49:02.396Z,52.25
2018-04-10T01:51:29.944Z,52.35
2018-04-10T01:53:57.473Z,51.91
2018-04-10T01:56:25.085Z,52.01
2018-04-10T01:58:52.685Z,52.01
2018-04-10T02:01:20.197Z,52.04
2018-04-10T02:03:47.702Z,52.10
2018-04-10T02:06:15.279Z,52.21
2018-04-10T02:08:42.791Z,52.24
2018-04-10T02:17:08.820Z,52.41
2018-04-10T02:19:53.945Z,52.47
2018-04-10T02:22:21.497Z,52.58
2018-04-10T02:24:49.052Z,52.81
2018-04-10T02:27:16.639Z,52.75
2018-04-10T02:29:45.326Z,52.73
2018-04-10T02:32:12.868Z,52.72
2018-04-10T02:34:40.415Z,52.81
2018-04-10T02:37:07.937Z,52.93
2018-04-10T02:39:35.722Z,52.96
2018-04-10T02:42:03.307Z,53.01
2018-04-10T02:44:31.127Z,53.05
2018-04-10T02:46:58.654Z,53.13
2018-04-10T02:49:26.242Z,53.24
2018-04-10T02:51:53.779Z,53.33
2018-04-10T02:54:21.315Z,53.28
2018-04-10T02:56:48.873Z,53.47
2018-04-10T02:59:16.660Z,53.60
2018-04-10T03:01:44.451Z,53.73
2018-04-10T03:04:12.301Z,54.08
2018-04-10T03:06:39.821Z,54.37
2018-04-10T03:09:07.467Z,54.52
2018-04-10T03:11:34.967Z,54.80
2018-04-10T03:14:02.481Z,54.71
2018-04-10T03:16:30.052Z,54.68
2018-04-10T03:18:57.561Z,54.83
2018-04-10T03:21:25.109Z,54.83
2018-04-10T03:23:52.661Z,55.00
2018-04-10T03:26:20.203Z,54.97
2018-04-10T03:28:47.770Z,54.97
2018-04-10T03:31:15.311Z,55.11
2018-04-10T03:33:42.844Z,55.15
2018-04-10T03:36:10.408Z,55.15
2018-04-10T03:38:38.008Z,55.37
2018-04-10T03:41:05.549Z,55.46
2018-04-10T03:43:33.109Z,55.49
2018-04-10T03:46:00.770Z,55.62
2018-04-10T03:48:28.302Z,55.70
2018-04-10T03:50:55.930Z,55.83
2018-04-10T03:53:23.458Z,55.95
2018-04-10T03:55:51.642Z,55.98
2018-04-10T03:58:19.461Z,55.99
2018-04-10T04:00:46.990Z,56.04
2018-04-10T04:03:14.529Z,56.24
2018-04-10T04:05:42.035Z,56.16
2018-04-10T04:08:09.571Z,56.34
2018-04-10T04:10:37.072Z,56.34
2018-04-10T04:13:05.274Z,56.48
2018-04-10T04:15:32.816Z,56.49
2018-04-10T04:18:00.345Z,56.67
2018-04-10T04:20:39.675Z,56.56
2018-04-10T04:23:07.228Z,56.47
2018-04-10T04:25:34.770Z,56.31
2018-04-10T04:28:02.311Z,56.55
2018-04-10T04:30:30.235Z,56.45
2018-04-10T04:32:57.812Z,56.45
2018-04-10T04:35:25.396Z,56.39
2018-04-10T04:37:53.035Z,56.33
2018-04-10T04:40:20.674Z,56.42
2018-04-10T04:42:48.228Z,56.54
2018-04-10T04:45:15.800Z,56.45
2018-04-10T04:47:44.066Z,56.21
2018-04-10T04:50:11.626Z,56.22
2018-04-10T04:52:39.274Z,56.27
2018-04-10T04:55:06.843Z,56.16
2018-04-10T04:57:34.698Z,56.05
2018-04-10T05:00:02.253Z,55.83
2018-04-10T05:02:29.789Z,55.77
2018-04-10T05:04:57.352Z,56.06
2018-04-10T05:07:24.878Z,55.90
2018-04-10T05:09:52.450Z,56.09
2018-04-10T05:12:20.479Z,56.02
2018-04-10T05:14:48.043Z,56.02
2018-04-10T05:17:15.596Z,55.85
2018-04-10T05:19:43.164Z,55.79
2018-04-10T05:22:10.720Z,55.85
2018-04-10T05:24:38.256Z,55.83
2018-04-10T05:27:05.853Z,55.79
2018-04-10T05:29:33.409Z,55.99
2018-04-10T05:32:00.944Z,55.75
2018-04-10T05:34:28.467Z,55.68
2018-04-10T05:36:56.106Z,55.21
2018-04-10T05:39:23.626Z,55.02
2018-04-10T05:41:51.549Z,55.05
2018-04-10T05:44:19.330Z,55.10
2018-04-10T05:46:46.874Z,55.02
2018-04-10T05:49:14.449Z,55.23
2018-04-10T05:51:41.986Z,55.19
2018-04-10T05:54:09.776Z,55.12
2018-04-10T05:56:37.337Z,54.97
2018-04-10T05:59:04.855Z,54.54
2018-04-10T06:01:32.629Z,54.21
2018-04-10T06:04:00.258Z,53.43
2018-04-10T06:06:27.789Z,52.93
2018-04-10T06:08:55.327Z,52.17
2018-04-10T06:11:22.895Z,51.73
2018-04-10T06:13:50.439Z,50.96
2018-04-10T06:16:17.997Z,50.83
2018-04-10T06:18:45.515Z,50.73
2018-04-10T06:21:13.535Z,50.55
2018-04-10T06:23:41.090Z,50.53
2018-04-10T06:26:08.609Z,50.27
2018-04-10T06:28:36.143Z,50.36
2018-04-10T06:31:03.771Z,50.13
2018-04-10T06:33:31.321Z,49.98
2018-04-10T06:35:59.100Z,49.73
2018-04-10T06:38:26.885Z,49.31
2018-04-10T06:40:54.411Z,49.11
2018-04-10T06:43:21.958Z,48.76
2018-04-10T06:45:49.757Z,47.90
2018-04-10T06:48:17.337Z,48.34
2018-04-10T06:50:44.853Z,48.04
2018-04-10T06:53:12.388Z,47.28
2018-04-10T06:55:39.911Z,46.70
2018-04-10T06:58:07.615Z,46.16
2018-04-10T07:00:35.188Z,45.71
2018-04-10T07:03:02.838Z,45.23
2018-04-10T07:05:30.502Z,44.29
2018-04-10T07:07:58.142Z,43.74
2018-04-10T07:10:25.749Z,42.78
2018-04-10T07:12:53.310Z,43.11
2018-04-10T07:15:20.885Z,42.91
2018-04-10T07:17:49.743Z,42.29
2018-04-10T07:20:17.350Z,41.28
2018-04-10T07:22:44.868Z,41.10
2018-04-10T07:25:12.558Z,40.67
2018-04-10T07:27:40.447Z,39.78
2018-04-10T07:30:08.150Z,39.64
2018-04-10T07:32:35.806Z,39.45
2018-04-10T07:35:03.363Z,40.29
2018-04-10T07:37:31.023Z,39.93
2018-04-10T07:39:58.706Z,39.75
2018-04-10T07:42:26.759Z,39.05
2018-04-10T07:44:54.290Z,39.17
2018-04-10T07:47:21.881Z,38.53
2018-04-10T07:49:49.944Z,38.73
2018-04-10T07:52:17.486Z,38.97
2018-04-10T07:54:45.161Z,39.50
2018-04-10T07:57:12.691Z,38.54
2018-04-10T07:59:40.240Z,38.86
2018-04-10T08:02:07.814Z,38.55
2018-04-10T08:04:35.409Z,38.78
2018-04-10T08:07:02.963Z,38.89
2018-04-10T08:09:30.500Z,38.79
2018-04-10T08:11:59.208Z,38.43
2018-04-10T08:14:26.936Z,38.29
2018-04-10T08:16:54.646Z,38.06
2018-04-10T08:19:22.220Z,38.18
2018-04-10T08:21:49.726Z,37.43
2018-04-10T08:24:17.288Z,36.45
2018-04-10T08:26:44.873Z,35.72
2018-04-10T08:29:12.402Z,35.52
2018-04-10T08:31:40.008Z,36.24
2018-04-10T08:34:07.556Z,35.63
2018-04-10T08:36:35.086Z,35.56
2018-04-10T08:39:02.983Z,34.50
2018-04-10T08:41:30.850Z,34.05
2018-04-10T08:43:58.473Z,32.90
2018-04-10T08:46:26.289Z,32.23
2018-04-10T08:48:53.840Z,31.22
2018-04-10T08:51:21.369Z,31.54
2018-04-10T08:53:48.888Z,30.63
2018-04-10T08:56:16.434Z,30.14
2018-04-10T08:58:44.504Z,29.44
2018-04-10T09:01:12.835Z,29.06
2018-04-10T09:03:40.430Z,28.66
2018-04-10T09:06:07.950Z,28.61
2018-04-10T09:08:35.590Z,28.34
2018-04-10T09:11:03.176Z,28.70
2018-04-10T09:13:30.693Z,28.08
2018-04-10T09:15:58.206Z,27.86
2018-04-10T09:18:26.000Z,27.81
2018-04-10T09:20:53.521Z,30.00
2018-04-10T09:23:21.065Z,29.99
2018-04-10T09:25:48.783Z,30.20
2018-04-10T09:28:16.336Z,31.32
2018-04-10T09:30:43.907Z,31.35
2018-04-10T09:33:11.472Z,31.03
2018-04-10T09:35:39.047Z,30.59
2018-04-10T09:38:06.571Z,30.02
2018-04-10T09:40:34.230Z,29.72
2018-04-10T09:43:01.772Z,30.68
2018-04-10T09:45:29.283Z,30.56
2018-04-10T09:47:56.849Z,30.22
2018-04-10T09:50:24.361Z,30.33
2018-04-10T09:52:51.976Z,29.97
2018-04-10T09:55:19.532Z,29.85
2018-04-10T09:57:47.085Z,29.91
2018-04-10T10:00:14.633Z,30.03
2018-04-10T10:02:42.208Z,30.47
2018-04-10T10:05:09.902Z,30.17
2018-04-10T10:07:37.423Z,31.06
2018-04-10T10:10:04.976Z,31.37
2018-04-10T10:12:32.566Z,31.88
2018-04-10T10:15:00.145Z,31.87
2018-04-10T10:17:27.689Z,31.79
2018-04-10T10:19:55.549Z,31.03
2018-04-10T10:22:23.074Z,30.88
2018-04-10T10:24:50.715Z,30.21
2018-04-10T10:27:18.230Z,30.21
2018-04-10T10:29:45.769Z,29.74
2018-04-10T10:32:13.399Z,28.27
2018-04-10T10:34:40.905Z,27.63
2018-04-10T10:37:08.414Z,28.13
2018-04-10T10:39:35.969Z,28.21
2018-04-10T10:42:03.497Z,27.89
2018-04-10T10:44:31.531Z,29.16
2018-04-10T10:46:59.113Z,29.13
2018-04-10T10:49:26.974Z,28.80
2018-04-10T10:51:54.980Z,27.99
2018-04-10T10:54:22.521Z,27.10
2018-04-10T10:56:50.054Z,26.54
2018-04-10T10:59:17.580Z,26.66
2018-04-10T11:01:45.144Z,27.44
2018-04-10T11:04:12.644Z,26.70
2018-04-10T11:06:40.190Z,26.29
2018-04-10T11:09:07.838Z,24.71
2018-04-10T11:11:35.365Z,23.05
2018-04-10T11:14:02.913Z,22.09
2018-04-10T11:16:30.479Z,22.43
2018-04-10T11:18:58.314Z,22.57
2018-04-10T11:21:25.906Z,22.04
2018-04-10T11:23:53.455Z,21.69
2018-04-10T11:26:20.976Z,22.01
2018-04-10T11:28:48.530Z,22.19
2018-04-10T11:31:16.444Z,22.98
2018-04-10T11:33:43.962Z,22.29
2018-04-10T11:36:11.586Z,22.76
2018-04-10T11:38:40.068Z,21.40
2018-04-10T11:41:07.651Z,20.71
2018-04-10T11:43:35.243Z,19.25
2018-04-10T11:46:02.960Z,18.30
2018-04-10T11:48:30.485Z,17.12
2018-04-10T11:50:58.013Z,16.38
2018-04-10T11:53:25.608Z,17.31
2018-04-10T11:55:53.137Z,16.61
2018-04-10T11:58:20.879Z,17.12
2018-04-10T12:00:48.416Z,16.73
2018-04-10T12:03:15.942Z,16.75
2018-04-10T12:05:43.592Z,15.60
2018-04-10T12:08:11.246Z,15.53
2018-04-10T12:10:38.806Z,15.25
2018-04-10T12:13:06.356Z,16.67
2018-04-10T12:15:33.977Z,15.80
2018-04-10T12:18:01.487Z,15.13
2018-04-10T12:20:29.003Z,14.17
2018-04-10T12:22:56.558Z,13.73
2018-04-10T12:25:24.077Z,13.40
2018-04-10T12:27:51.598Z,14.13
2018-04-10T12:30:19.251Z,14.38
2018-04-10T12:32:46.770Z,14.52
2018-04-10T12:35:14.283Z,14.24
2018-04-10T12:37:41.881Z,13.44
2018-04-10T12:40:09.473Z,13.03
2018-04-10T12:42:37.004Z,12.59
2018-04-10T12:45:04.567Z,13.97
2018-04-10T12:47:32.100Z,13.09
2018-04-10T12:49:59.664Z,12.54
2018-04-10T12:52:27.242Z,11.90
2018-04-10T12:54:55.039Z,11.55
2018-04-10T12:57:22.600Z,11.18
2018-04-10T12:59:50.154Z,10.94
2018-04-10T13:02:17.721Z,11.65
2018-04-10T13:04:45.247Z,12.80
2018-04-10T13:07:12.808Z,13.03
2018-04-10T13:09:40.331Z,13.19
2018-04-10T13:12:07.896Z,13.16
2018-04-10T13:14:35.453Z,13.50
2018-04-10T13:17:02.960Z,14.22
2018-04-10T13:19:30.494Z,14.91
2018-04-10T13:21:58.058Z,15.54
2018-04-10T13:24:25.634Z,16.54
2018-04-10T13:26:53.135Z,17.38
2018-04-10T13:29:20.767Z,18.55
2018-04-10T13:31:48.331Z,18.12
2018-04-10T13:34:15.892Z,19.94
2018-04-10T13:36:43.636Z,19.97
2018-04-10T13:39:11.190Z,19.75
2018-04-10T13:41:38.770Z,19.55
2018-04-10T13:44:06.646Z,20.22
2018-04-10T13:46:34.179Z,20.14
2018-04-10T13:49:01.690Z,20.91
2018-04-10T13:51:29.285Z,21.64
2018-04-10T13:53:57.054Z,21.74
2018-04-10T13:56:24.626Z,21.63
2018-04-10T13:58:52.188Z,21.00
2018-04-10T14:01:19.697Z,21.54
2018-04-10T14:03:47.287Z,22.79
2018-04-10T14:06:14.857Z,23.76
2018-04-10T14:08:42.368Z,23.31
2018-04-10T14:11:10.071Z,23.19
2018-04-10T14:13:37.596Z,23.30
2018-04-10T14:16:05.355Z,22.92
2018-04-10T14:18:32.866Z,23.18
2018-04-10T14:21:00.510Z,23.73
2018-04-10T14:23:28.033Z,23.90
2018-04-10T14:25:55.538Z,23.88
2018-04-10T14:28:23.127Z,23.69
2018-04-10T14:30:50.666Z,23.79
2018-04-10T14:33:18.222Z,22.99
2018-04-10T14:35:45.746Z,22.21
2018-04-10T14:38:13.272Z,21.63
2018-04-10T14:40:40.797Z,20.95
2018-04-10T14:43:08.457Z,20.60
2018-04-10T14:45:35.974Z,22.48
2018-04-10T14:48:03.735Z,23.68
2018-04-10T14:50:31.601Z,24.58
2018-04-10T14:52:59.150Z,24.98
2018-04-10T14:55:26.702Z,25.21
2018-04-10T14:57:54.252Z,25.93
2018-04-10T15:00:21.859Z,25.74
2018-04-10T15:02:49.392Z,25.37
2018-04-10T15:05:16.970Z,25.36
2018-04-10T15:07:44.506Z,24.94
2018-04-10T15:10:12.034Z,25.21
2018-04-10T15:12:39.583Z,25.51
2018-04-10T15:15:07.279Z,25.63
2018-04-10T15:17:34.855Z,26.58
2018-04-10T15:20:02.437Z,27.49
2018-04-10T15:22:30.001Z,28.37
2018-04-10T15:24:57.566Z,29.33
2018-04-10T15:27:25.164Z,29.75
2018-04-10T15:29:52.682Z,30.23
2018-04-10T15:32:20.300Z,30.40
2018-04-10T15:34:48.004Z,30.44
2018-04-10T15:37:15.645Z,30.80
2018-04-10T15:39:43.222Z,31.10
2018-04-10T15:42:10.772Z,31.18
2018-04-10T15:44:38.421Z,31.07
2018-04-10T15:47:06.090Z,31.10
2018-04-10T15:49:33.805Z,31.08
2018-04-10T15:52:01.651Z,31.07
2018-04-10T15:54:29.226Z,31.26
2018-04-10T15:56:56.753Z,31.15
2018-04-10T15:59:24.279Z,31.53
2018-04-10T16:01:51.801Z,31.93
2018-04-10T16:04:19.394Z,31.99
2018-04-10T16:06:47.063Z,31.52
2018-04-10T16:09:14.590Z,31.42
2018-04-10T16:11:42.448Z,31.89
2018-04-10T16:14:09.980Z,31.90
2018-04-10T16:16:37.783Z,31.56
2018-04-10T16:19:05.322Z,29.95
2018-04-10T16:21:32.902Z,29.10
2018-04-10T16:24:00.428Z,27.82
2018-04-10T16:26:27.990Z,27.01
2018-04-10T16:28:55.488Z,26.19
2018-04-10T16:31:23.017Z,26.59
2018-04-10T16:33:50.564Z,26.56
2018-04-10T16:36:18.112Z,26.04
2018-04-10T16:38:45.626Z,26.04
2018-04-10T16:41:13.577Z,26.38
2018-04-10T16:43:41.225Z,26.00
2018-04-10T16:46:08.734Z,26.31
2018-04-10T16:48:36.279Z,25.75
2018-04-10T16:51:04.142Z,25.91
2018-04-10T16:53:31.763Z,25.52
2018-04-10T16:55:59.359Z,25.66
2018-04-10T16:58:26.885Z,25.97
2018-04-10T17:00:54.410Z,25.57
2018-04-10T17:03:22.006Z,25.62
2018-04-10T17:05:50.405Z,26.00
2018-04-10T17:08:17.903Z,26.29
2018-04-10T17:10:45.451Z,25.96
2018-04-10T17:13:12.970Z,26.36
2018-04-10T17:15:40.495Z,26.42
2018-04-10T17:18:08.034Z,26.47
2018-04-10T17:20:35.564Z,26.88
2018-04-10T17:23:03.104Z,27.04
2018-04-10T17:25:30.768Z,27.22
2018-04-10T17:27:58.286Z,27.48
2018-04-10T17:30:25.811Z,27.64
2018-04-10T17:32:53.363Z,27.57
2018-04-10T17:35:20.889Z,27.80
2018-04-10T17:37:48.581Z,27.89
2018-04-10T17:40:16.187Z,28.18
2018-04-10T17:42:43.702Z,28.33
2018-04-10T17:45:11.230Z,28.15
2018-04-10T17:47:38.858Z,28.36
2018-04-10T17:50:06.381Z,28.48
2018-04-10T17:52:33.947Z,28.81
2018-04-10T17:55:01.534Z,28.84
2018-04-10T17:57:29.042Z,28.81
2018-04-10T17:59:56.553Z,29.33
2018-04-10T18:02:24.144Z,29.06
2018-04-10T18:04:51.980Z,28.87
2018-04-10T18:07:20.272Z,29.08
2018-04-10T18:09:48.031Z,29.04
2018-04-10T18:12:15.574Z,29.42
2018-04-10T18:14:43.137Z,29.42
2018-04-10T18:17:10.706Z,29.50
2018-04-10T18:19:38.257Z,29.40
2018-04-10T18:22:06.249Z,29.82
2018-04-10T18:24:33.861Z,29.20
2018-04-10T18:27:02.418Z,29.15
2018-04-10T18:29:29.952Z,29.30
2018-04-10T18:31:57.491Z,29.09
2018-04-10T18:34:25.570Z,29.03
2018-04-10T18:36:53.102Z,29.12
2018-04-10T18:39:21.002Z,28.74
2018-04-10T18:41:48.670Z,28.84
2018-04-10T18:44:16.223Z,28.78
2018-04-10T18:46:43.784Z,28.85
2018-04-10T18:49:11.323Z,28.91
2018-04-10T18:51:38.845Z,30.68
2018-04-10T18:54:06.669Z,34.80
2018-04-10T18:56:34.310Z,37.53
2018-04-10T18:59:01.898Z,39.23
2018-04-10T19:01:29.660Z,40.01
2018-04-10T19:03:58.351Z,40.99
2018-04-10T19:06:26.067Z,41.70
2018-04-10T19:08:53.645Z,41.94
2018-04-10T19:11:21.482Z,43.01
2018-04-10T19:13:49.412Z,43.57
2018-04-10T19:16:17.065Z,44.06
2018-04-10T19:18:44.611Z,45.02
2018-04-10T19:21:12.132Z,45.56
2018-04-10T19:23:39.721Z,45.88
2018-04-10T19:26:07.257Z,46.39
2018-04-10T19:28:35.183Z,46.88
2018-04-10T19:31:02.767Z,47.31
2018-04-10T19:33:30.606Z,47.27
2018-04-10T19:35:58.123Z,47.53
2018-04-10T19:38:25.939Z,47.56
2018-04-10T19:40:53.510Z,48.19
2018-04-10T19:43:21.060Z,48.14
2018-04-10T19:45:48.617Z,48.24
2018-04-10T19:48:16.733Z,48.19
2018-04-10T19:50:44.364Z,48.39
2018-04-10T19:53:11.951Z,48.42
2018-04-10T19:55:39.478Z,48.29
2018-04-10T19:58:07.002Z,48.40
2018-04-10T20:00:34.555Z,48.60
2018-04-10T20:03:02.083Z,48.49
2018-04-10T20:05:29.628Z,48.68
2018-04-10T20:07:57.196Z,48.73
2018-04-10T20:10:24.897Z,49.16
2018-04-10T20:12:52.429Z,49.21
2018-04-10T20:15:20.694Z,49.61
2018-04-10T20:17:48.565Z,49.80
2018-04-10T20:20:16.098Z,49.61
2018-04-10T20:22:43.671Z,49.77
2018-04-10T20:25:11.441Z,49.71
2018-04-10T20:27:38.987Z,49.83
2018-04-10T20:30:06.584Z,50.57
2018-04-10T20:32:34.138Z,50.80
2018-04-10T20:35:01.709Z,51.01
2018-04-10T20:37:29.809Z,51.05
2018-04-10T20:39:58.542Z,50.93
2018-04-10T20:42:26.063Z,50.88
2018-04-10T20:44:53.770Z,50.91
2018-04-10T20:47:21.307Z,51.19
2018-04-10T20:49:48.879Z,51.45
2018-04-10T20:52:16.499Z,51.60
2018-04-10T20:54:44.224Z,51.65
2018-04-10T20:57:12.240Z,51.67
2018-04-10T20:59:39.816Z,51.86
2018-04-10T21:02:07.358Z,52.05
2018-04-10T21:04:34.981Z,52.83
2018-04-10T21:07:02.534Z,52.67
2018-04-10T21:09:30.790Z,53.02
2018-04-10T21:11:58.336Z,53.43
2018-04-10T21:14:25.901Z,53.34
2018-04-10T21:16:53.457Z,53.70
2018-04-10T21:19:20.980Z,53.99
2018-04-10T21:21:48.503Z,53.92
2018-04-10T21:24:16.028Z,54.04
2018-04-10T21:26:43.621Z,54.22
2018-04-10T21:29:11.138Z,54.36
2018-04-10T21:31:38.704Z,54.34
2018-04-10T21:34:06.517Z,54.44
2018-04-10T21:36:34.055Z,54.96
2018-04-10T21:39:01.658Z,55.24
2018-04-10T21:41:29.630Z,55.04
2018-04-10T21:43:57.180Z,55.21
2018-04-10T21:46:24.714Z,55.30
2018-04-10T21:48:52.265Z,55.35
2018-04-10T21:51:19.805Z,55.34
2018-04-10T21:53:47.356Z,55.51
2018-04-10T21:56:14.893Z,55.36
2018-04-10T21:58:42.462Z,55.35
2018-04-10T22:01:10.151Z,55.02
2018-04-10T22:03:37.812Z,55.02
2018-04-10T22:06:05.366Z,54.93
2018-04-10T22:08:32.896Z,55.05
2018-04-10T22:11:00.426Z,54.86
2018-04-10T22:13:27.959Z,54.77
2018-04-10T22:15:55.577Z,54.64
2018-04-10T22:18:23.103Z,54.69
2018-04-10T22:20:50.622Z,54.80
2018-04-10T22:23:18.666Z,54.78
2018-04-10T22:25:46.199Z,54.80
2018-04-10T22:28:13.759Z,54.65
2018-04-10T22:30:41.338Z,54.85
2018-04-10T22:33:08.835Z,55.14
2018-04-10T22:35:36.390Z,55.35
2018-04-10T22:38:03.959Z,55.80
2018-04-10T22:40:31.548Z,55.94
2018-04-10T22:42:59.091Z,56.28
2018-04-10T22:45:26.872Z,56.32
2018-04-10T22:47:54.433Z,56.31
2018-04-10T22:50:21.937Z,56.35
2018-04-10T22:52:49.486Z,56.31
2018-04-10T22:55:17.009Z,56.46
2018-04-10T22:57:44.542Z,56.65
2018-04-10T23:00:13.206Z,56.50
2018-04-10T23:02:40.743Z,56.62
2018-04-10T23:05:08.525Z,56.60
2018-04-10T23:07:36.045Z,56.29
2018-04-10T23:10:03.653Z,56.36
2018-04-10T23:12:31.215Z,56.49
2018-04-10T23:14:58.810Z,56.36
2018-04-10T23:17:26.378Z,56.49
2018-04-10T23:19:53.886Z,56.83
2018-04-10T23:22:21.427Z,56.78
2018-04-10T23:24:48.983Z,56.91
2018-04-10T23:27:16.761Z,57.12
2018-04-10T23:29:44.325Z,57.25
2018-04-10T23:32:11.838Z,57.32
2018-04-10T23:34:39.410Z,57.38
2018-04-10T23:37:06.947Z,57.40
2018-04-10T23:39:34.493Z,57.41
2018-04-10T23:42:02.345Z,57.66
2018-04-10T23:44:29.908Z,57.64
2018-04-10T23:46:57.442Z,57.66
2018-04-10T23:49:25.050Z,57.49
2018-04-10T23:51:52.567Z,57.21
2018-04-10T23:54:20.122Z,57.32
2018-04-10T23:56:47.908Z,57.53
2018-04-10T23:59:15.680Z,57.38
